| time (UTC) | temp F | wind direction | speed MPH | gust MPH | rain 1hr in | rain 24hr in | rain mn in | humidity % | barometer mb |
| 20260509211318 | 67 | 270 | 0.0 | 0.0 | 0.00 | 0.00 | 0.00 | 100 | 1020.2 |
| 20260509210317 | 64 | 315 | 0.0 | 0.0 | 0.00 | 0.00 | 0.00 | 100 | 1020.0 |
| 20260509204314 | 62 | 315 | 0.0 | 0.0 | 0.00 | 0.00 | 0.00 | 100 | 1019.9 |
| 20260509203313 | 61 | 45 | 0.0 | 0.0 | 0.00 | 0.00 | 0.00 | 100 | 1019.8 |
| 20260509201310 | 60 | 105 | 0.0 | 1.0 | 0.00 | 0.00 | 0.00 | 100 | 1019.5 |
| 20260509200309 | 60 | 105 | 1.0 | 2.0 | 0.00 | 0.00 | 0.00 | 100 | 1019.5 |
| 20260509195307 | 60 | 90 | 0.0 | 2.0 | 0.00 | 0.00 | 0.00 | 100 | 1019.3 |
| 20260509194306 | 60 | 90 | 0.0 | 0.0 | 0.00 | 0.00 | 0.00 | 100 | 1019.1 |
| 20260509193304 | 60 | 67 | 0.0 | 0.0 | 0.00 | 0.00 | 0.00 | 100 | 1019.0 |
| 20260509191302 | 60 | 58 | 0.0 | 0.0 | 0.00 | 0.00 | 0.00 | 100 | 1018.5 |
| 20260509190300 | 60 | 45 | 0.0 | 0.0 | 0.00 | 0.00 | 0.00 | 100 | 1018.4 |
| 20260509185259 | 60 | 90 | 0.0 | 0.0 | 0.00 | 0.00 | 0.00 | 100 | 1018.4 |
| 20260509183256 | 60 | 112 | 0.0 | 0.0 | 0.00 | 0.00 | 0.00 | 100 | 1018.2 |
| 20260509181256 | 61 | 45 | 0.0 | 0.0 | 0.00 | 0.00 | 0.00 | 100 | 1017.9 |
| 20260509180252 | 61 | 270 | 0.0 | 0.0 | 0.00 | 0.00 | 0.00 | 100 | 1017.8 |
| 20260509175251 | 61 | 315 | 0.0 | 0.0 | 0.00 | 0.00 | 0.00 | 100 | 1017.8 |
| 20260509174250 | 62 | 315 | 0.0 | 0.0 | 0.00 | 0.00 | 0.00 | 100 | 1017.7 |
| 20260509172247 | 61 | 270 | 0.0 | 0.0 | 0.00 | 0.00 | 0.00 | 100 | 1017.6 |
| 20260509171245 | 61 | 315 | 0.0 | 0.0 | 0.00 | 0.00 | 0.00 | 100 | 1017.5 |
| 20260509170244 | 61 | 45 | 0.0 | 0.0 | 0.00 | 0.00 | 0.00 | 100 | 1017.6 |
| 20260509165243 | 61 | 315 | 0.0 | 0.0 | 0.00 | 0.00 | 0.00 | 100 | 1017.5 |
| 20260509164241 | 61 | 83 | 0.0 | 0.0 | 0.00 | 0.00 | 0.00 | 100 | 1017.4 |
| 20260509163240 | 61 | 315 | 0.0 | 0.0 | 0.00 | 0.00 | 0.00 | 100 | 1017.4 |
| 20260509162239 | 61 | 45 | 0.0 | 0.0 | 0.00 | 0.00 | 0.00 | 100 | 1017.4 |
| 20260509161237 | 62 | 225 | 0.0 | 0.0 | 0.00 | 0.00 | 0.00 | 100 | 1017.3 |
| 20260509160236 | 62 | 67 | 0.0 | 0.0 | 0.00 | 0.00 | 0.00 | 100 | 1017.2 |
| 20260509155236 | 62 | 45 | 0.0 | 1.0 | 0.00 | 0.00 | 0.00 | 100 | 1017.1 |
| 20260509154236 | 62 | 315 | 0.0 | 0.0 | 0.00 | 0.00 | 0.00 | 100 | 1017.1 |
| 20260509153232 | 62 | 225 | 0.0 | 0.0 | 0.00 | 0.00 | 0.00 | 100 | 1017.1 |
| 20260509152230 | 62 | 315 | 0.0 | 0.0 | 0.00 | 0.00 | 0.00 | 100 | 1017.2 |
| 20260509150229 | 63 | 112 | 0.0 | 0.0 | 0.00 | 0.00 | 0.00 | 100 | 1017.2 |
| 20260509145226 | 63 | 45 | 0.0 | 0.0 | 0.00 | 0.00 | 0.00 | 100 | 1017.1 |
| 20260509144225 | 63 | 45 | 0.0 | 0.0 | 0.00 | 0.00 | 0.00 | 100 | 1017.0 |
| 20260509143224 | 63 | 315 | 0.0 | 0.0 | 0.00 | 0.00 | 0.00 | 100 | 1016.8 |
| 20260509142222 | 63 | 315 | 0.0 | 1.0 | 0.00 | 0.00 | 0.00 | 100 | 1016.8 |
| 20260509141221 | 63 | 45 | 0.0 | 0.0 | 0.00 | 0.00 | 0.00 | 100 | 1016.7 |
| 20260509140222 | 63 | 45 | 0.0 | 0.0 | 0.00 | 0.00 | 0.00 | 100 | 1016.5 |
| 20260509135218 | 63 | 112 | 0.0 | 0.0 | 0.00 | 0.00 | 0.00 | 100 | 1016.5 |
| 20260509134217 | 63 | 45 | 0.0 | 0.0 | 0.00 | 0.00 | 0.00 | 100 | 1016.5 |
| 20260509133215 | 64 | 45 | 0.0 | 0.0 | 0.00 | 0.00 | 0.00 | 100 | 1016.3 |
| 20260509132214 | 64 | 45 | 0.0 | 0.0 | 0.00 | 0.00 | 0.00 | 100 | 1016.4 |
| 20260509131213 | 64 | 45 | 0.0 | 0.0 | 0.00 | 0.00 | 0.00 | 100 | 1016.1 |
| 20260509130214 | 64 | 45 | 0.0 | 0.0 | 0.00 | 0.00 | 0.00 | 100 | 1016.2 |
| 20260509125211 | 65 | 45 | 0.0 | 0.0 | 0.00 | 0.00 | 0.00 | 100 | 1016.0 |
| 20260509123208 | 65 | 45 | 0.0 | 0.0 | 0.00 | 0.00 | 0.00 | 100 | 1015.8 |
| 20260509121205 | 65 | 45 | 0.0 | 0.0 | 0.00 | 0.00 | 0.00 | 100 | 1015.9 |
| 20260509115202 | 66 | 45 | 0.0 | 0.0 | 0.00 | 0.00 | 0.00 | 100 | 1015.8 |
| 20260509114202 | 66 | 45 | 0.0 | 0.0 | 0.00 | 0.00 | 0.00 | 100 | 1015.6 |
| 20260509111158 | 67 | 90 | 0.0 | 0.0 | 0.00 | 0.00 | 0.00 | 100 | 1015.2 |
| 20260509105155 | 68 | 45 | 0.0 | 0.0 | 0.00 | 0.00 | 0.00 | 100 | 1015.0 |
| 20260509103152 | 68 | 54 | 0.0 | 2.0 | 0.00 | 0.00 | 0.00 | 100 | 1014.5 |
| 20260509102151 | 69 | 54 | 0.0 | 0.0 | 0.00 | 0.00 | 0.00 | 100 | 1014.4 |
| 20260509101149 | 69 | 87 | 1.0 | 2.0 | 0.00 | 0.00 | 0.00 | 100 | 1014.3 |
| 20260509100148 | 69 | 45 | 0.0 | 0.0 | 0.00 | 0.00 | 0.00 | 100 | 1014.1 |
| 20260509094146 | 70 | 315 | 0.0 | 0.0 | 0.00 | 0.00 | 0.00 | 100 | 1013.7 |
| 20260509093144 | 70 | 112 | 0.0 | 1.0 | 0.00 | 0.00 | 0.00 | 100 | 1013.7 |
| 20260509092143 | 71 | 90 | 2.0 | 4.0 | 0.00 | 0.00 | 0.00 | 100 | 1013.5 |
| 20260509090138 | 72 | 335 | 0.0 | 1.0 | 0.00 | 0.00 | 0.00 | 100 | 1013.2 |
| 20260509082134 | 73 | 162 | 0.0 | 3.0 | 0.00 | 0.00 | 0.00 | 100 | 1012.4 |
| 20260509081133 | 73 | 84 | 4.0 | 8.0 | 0.00 | 0.00 | 0.00 | 100 | 1012.3 |
| 20260509080132 | 73 | 94 | 0.0 | 3.0 | 0.00 | 0.00 | 0.00 | 100 | 1012.2 |
| 20260509075129 | 74 | 63 | 2.0 | 4.0 | 0.00 | 0.00 | 0.00 | 100 | 1012.0 |
| 20260509074127 | 74 | 78 | 1.0 | 4.0 | 0.00 | 0.00 | 0.00 | 100 | 1011.9 |
| 20260509073126 | 74 | 265 | 0.0 | 3.0 | 0.00 | 0.00 | 0.00 | 100 | 1011.6 |
| 20260509072125 | 74 | 282 | 0.0 | 3.0 | 0.00 | 0.00 | 0.00 | 100 | 1011.4 |
| 20260509070122 | 74 | 72 | 3.0 | 6.0 | 0.00 | 0.00 | 0.00 | 100 | 1011.0 |
| 20260509064120 | 74 | 232 | 0.0 | 3.0 | 0.00 | 0.00 | 0.00 | 100 | 1010.9 |
| 20260509063118 | 74 | 143 | 1.0 | 3.0 | 0.00 | 0.00 | 0.00 | 100 | 1011.0 |
| 20260509061115 | 74 | 202 | 4.0 | 8.0 | 0.00 | 0.00 | 0.00 | 100 | 1010.7 |
| 20260509060114 | 74 | 205 | 4.0 | 6.0 | 0.00 | 0.00 | 0.00 | 100 | 1010.8 |
| 20260509054111 | 75 | 90 | 4.0 | 6.0 | 0.00 | 0.00 | 0.00 | 100 | 1010.5 |
| 20260509053110 | 75 | 76 | 2.0 | 7.0 | 0.00 | 0.00 | 0.00 | 100 | 1010.4 |
| 20260509052109 | 76 | 103 | 1.0 | 2.0 | 0.00 | 0.00 | 0.00 | 100 | 1010.4 |
| 20260509051107 | 76 | 67 | 3.0 | 9.0 | 0.00 | 0.00 | 0.00 | 100 | 1010.2 |
| 20260509050106 | 77 | 78 | 2.0 | 4.0 | 0.00 | 0.00 | 0.00 | 100 | 1010.4 |
| 20260509045106 | 78 | 150 | 0.0 | 3.0 | 0.00 | 0.00 | 0.00 | 100 | 1010.8 |
| 20260509044103 | 79 | 85 | 3.0 | 7.0 | 0.00 | 0.00 | 0.00 | 100 | 1010.8 |
| 20260509043102 | 80 | 90 | 2.0 | 5.0 | 0.00 | 0.00 | 0.00 | 100 | 1010.9 |
| 20260509041059 | 79 | 115 | 2.0 | 3.0 | 0.00 | 0.00 | 0.00 | 100 | 1011.0 |
| 20260509040058 | 79 | 101 | 1.0 | 5.0 | 0.00 | 0.00 | 0.00 | 100 | 1011.1 |
| 20260509034055 | 78 | 123 | 3.0 | 5.0 | 0.00 | 0.00 | 0.00 | 100 | 1011.3 |
| 20260509033054 | 78 | 109 | 0.0 | 4.0 | 0.00 | 0.00 | 0.00 | 100 | 1011.2 |
| 20260509030045 | 79 | 92 | 3.0 | 5.0 | 0.00 | 0.00 | 0.00 | 100 | 1011.2 |
| 20260509025043 | 79 | 72 | 3.0 | 4.0 | 0.00 | 0.00 | 0.00 | 100 | 1011.1 |
| 20260509024043 | 79 | 76 | 1.0 | 3.0 | 0.00 | 0.00 | 0.00 | 100 | 1010.9 |
| 20260509023042 | 79 | 90 | 2.0 | 5.0 | 0.00 | 0.00 | 0.00 | 100 | 1010.9 |
| 20260509022039 | 79 | 81 | 2.0 | 5.0 | 0.00 | 0.00 | 0.00 | 100 | 1011.0 |
| 20260509021038 | 79 | 95 | 2.0 | 6.0 | 0.00 | 0.00 | 0.00 | 100 | 1011.0 |
| 20260509015035 | 79 | 165 | 1.0 | 4.0 | 0.00 | 0.00 | 0.00 | 100 | 1010.9 |
| 20260509014034 | 79 | 81 | 4.0 | 5.0 | 0.00 | 0.00 | 0.00 | 100 | 1010.8 |
| 20260509012032 | 79 | 84 | 4.0 | 5.0 | 0.00 | 0.00 | 0.00 | 100 | 1010.8 |
| 20260509011030 | 79 | 90 | 2.0 | 4.0 | 0.00 | 0.00 | 0.00 | 100 | 1010.7 |
| 20260509010029 | 79 | 83 | 0.0 | 6.0 | 0.00 | 0.00 | 0.00 | 100 | 1010.6 |
| 20260509004027 | 79 | 71 | 3.0 | 4.0 | 0.00 | 0.00 | 0.00 | 100 | 1010.0 |
| 20260509003024 | 80 | 87 | 1.0 | 4.0 | 0.00 | 0.00 | 0.00 | 100 | 1009.8 |
| 20260509002023 | 81 | 90 | 1.0 | 5.0 | 0.00 | 0.00 | 0.00 | 100 | 1009.5 |
| 20260509001021 | 82 | 78 | 1.0 | 3.0 | 0.00 | 0.00 | 0.00 | 100 | 1009.6 |
| 20260509000021 | 83 | 45 | 0.0 | 4.0 | 0.00 | 0.00 | 0.00 | 100 | 1009.4 |
| 20260508234017 | 86 | 54 | 2.0 | 2.0 | 0.00 | 0.00 | 0.00 | 100 | 1009.2 |
| 20260508233016 | 87 | 118 | 1.0 | 3.0 | 0.00 | 0.00 | 0.00 | 100 | 1009.1 |
| 20260508232015 | 87 | 225 | 0.0 | 3.0 | 0.00 | 0.00 | 0.00 | 100 | 1008.9 |
| 20260508231013 | 85 | 112 | 0.0 | 2.0 | 0.00 | 0.00 | 0.00 | 100 | 1008.7 |
| 20260508230012 | 83 | 45 | 0.0 | 2.0 | 0.00 | 0.00 | 0.00 | 100 | 1008.6 |
| 20260508225010 | 82 | 45 | 0.0 | 1.0 | 0.00 | 0.00 | 0.00 | 100 | 1008.4 |
| 20260508224009 | 80 | 225 | 0.0 | 1.0 | 0.00 | 0.00 | 0.00 | 100 | 1008.3 |
| 20260508223008 | 78 | 90 | 0.0 | 2.0 | 0.00 | 0.00 | 0.00 | 100 | 1008.2 |
| 20260508221005 | 72 | 67 | 0.0 | 2.0 | 0.00 | 0.00 | 0.00 | 100 | 1007.9 |
| 20260508220004 | 69 | 67 | 0.0 | 1.0 | 0.00 | 0.00 | 0.00 | 100 | 1007.8 |
| 20260508215002 | 68 | 45 | 0.0 | 2.0 | 0.00 | 0.00 | 0.00 | 100 | 1007.6 |
| 20260508214001 | 68 | 67 | 2.0 | 2.0 | 0.00 | 0.00 | 0.00 | 100 | 1007.4 |
| 20260508213000 | 67 | 69 | 1.0 | 2.0 | 0.00 | 0.00 | 0.00 | 100 | 1007.2 |
| 20260508211958 | 66 | 90 | 0.0 | 0.0 | 0.00 | 0.00 | 0.00 | 100 | 1007.0 |